Time;durP1;ratioP1;P1;durP2;ratioP2;P2;SDS_P1;SDS_P2;PMS_P1;PMS_P2;Temp;Humidity;BMP_temperature;BMP_pressure;BME280_temperature;BME280_humidity;BME280_pressure;Samples;Min_cycle;Max_cycle;Signal;HPM_P1;HPM_P2
2020/12/26 00:01:20;;;;;;;53.20;50.03;;;;;;;12.15;40.94;100099.69;4411097;32;33689;-88
2020/12/26 00:03:48;;;;;;;55.65;52.25;;;;;;;12.44;40.23;100097.87;4425527;32;33163;-88
2020/12/26 00:06:17;;;;;;;56.00;52.50;;;;;;;12.64;39.58;100105.09;4425356;32;33408;-88
2020/12/26 00:08:45;;;;;;;57.20;53.70;;;;;;;12.53;39.53;100102.81;4412379;32;32017;-87
2020/12/26 00:11:15;;;;;;;56.78;53.22;;;;;;;12.56;39.44;100101.00;4425638;32;33482;-88
2020/12/26 00:13:43;;;;;;;52.92;49.50;;;;;;;12.35;39.87;100101.69;4413259;32;34357;-89
2020/12/26 00:16:14;;;;;;;52.70;49.50;;;;;;;12.24;40.23;100098.53;4425899;32;32585;-88
2020/12/26 00:18:42;;;;;;;55.97;52.50;;;;;;;12.93;38.75;100107.59;4413091;32;32331;-88
2020/12/26 00:21:14;;;;;;;57.13;53.50;;;;;;;11.77;40.87;100106.09;4424990;32;32902;-88
2020/12/26 00:23:42;;;;;;;57.38;53.78;;;;;;;12.05;40.29;100105.28;4424920;32;33303;-87
2020/12/26 00:26:14;;;;;;;52.95;49.65;;;;;;;12.58;39.12;100115.75;4425373;32;34223;-88
2020/12/26 00:28:42;;;;;;;51.92;48.83;;;;;;;12.49;39.29;100119.50;4425942;32;32401;-88
2020/12/26 00:31:14;;;;;;;53.72;50.33;;;;;;;12.47;39.38;100128.28;4425886;32;34032;-88
2020/12/26 00:33:41;;;;;;;52.70;49.45;;;;;;;12.61;39.10;100133.94;4426206;32;34747;-88
2020/12/26 00:36:09;;;;;;;52.95;49.58;;;;;;;12.64;39.24;100133.84;4438854;32;33817;-88
2020/12/26 00:38:37;;;;;;;53.45;50.12;;;;;;;12.07;39.92;100142.63;4413398;32;32527;-88
2020/12/26 00:41:05;;;;;;;53.20;49.92;;;;;;;12.19;39.37;100153.56;4425899;32;33399;-88
2020/12/26 00:43:32;;;;;;;51.88;48.72;;;;;;;12.24;39.61;100163.84;4413267;32;33210;-88
2020/12/26 00:46:00;;;;;;;53.35;50.05;;;;;;;12.59;38.94;100167.13;4426060;32;33950;-88
2020/12/26 00:48:28;;;;;;;52.50;49.35;;;;;;;12.32;39.44;100176.69;4425957;32;32644;-88
2020/12/26 00:50:55;;;;;;;52.15;49.00;;;;;;;12.19;39.29;100179.69;4438533;32;33817;-87
2020/12/26 00:53:23;;;;;;;51.92;48.72;;;;;;;11.51;40.70;100196.41;4426225;32;35286;-88
2020/12/26 00:55:52;;;;;;;53.63;50.22;;;;;;;10.86;42.72;100198.09;4425922;32;32343;-88
2020/12/26 00:58:19;;;;;;;52.50;49.20;;;;;;;11.09;42.12;100205.34;4425603;32;33585;-88
2020/12/26 01:00:48;;;;;;;53.50;50.05;;;;;;;11.59;41.11;100202.25;4413092;32;32690;-87
2020/12/26 01:03:18;;;;;;;53.20;49.90;;;;;;;11.41;41.35;100201.03;4438917;32;33645;-88
2020/12/26 01:05:46;;;;;;;53.50;50.20;;;;;;;11.26;41.62;100202.31;4412988;32;33717;-88
2020/12/26 01:08:13;;;;;;;53.33;49.88;;;;;;;11.42;41.58;100202.75;4412835;32;33465;-89
2020/12/26 01:10:41;;;;;;;52.92;49.55;;;;;;;11.78;40.75;100201.75;4425684;32;32996;-88
2020/12/26 01:13:08;;;;;;;53.80;50.50;;;;;;;11.97;40.27;100199.50;4425776;32;33981;-88
2020/12/26 01:15:37;;;;;;;52.45;49.15;;;;;;;11.09;42.21;100214.91;4425587;32;33799;-88
2020/12/26 01:18:05;;;;;;;52.75;49.45;;;;;;;12.27;39.53;100208.19;4438547;32;34028;-88
2020/12/26 01:20:32;;;;;;;53.30;50.00;;;;;;;12.03;39.88;100213.25;4425474;32;32864;-88
2020/12/26 01:22:59;;;;;;;53.53;50.22;;;;;;;12.24;39.69;100212.66;4438307;32;33802;-88
2020/12/26 01:25:27;;;;;;;54.33;50.92;;;;;;;11.87;40.26;100211.91;4425745;32;32829;-87
2020/12/26 01:27:54;;;;;;;53.17;49.63;;;;;;;11.39;41.55;100215.84;4425611;32;32610;-88
2020/12/26 01:30:21;;;;;;;52.20;48.87;;;;;;;11.98;40.33;100202.06;4425575;32;32737;-87
2020/12/26 01:32:51;;;;;;;52.75;49.45;;;;;;;12.25;39.78;100209.97;4425623;32;33014;-88
2020/12/26 01:35:18;;;;;;;52.03;48.83;;;;;;;11.97;40.24;100202.97;4412895;32;33833;-88
2020/12/26 01:37:46;;;;;;;53.38;50.03;;;;;;;12.45;39.42;100198.91;4412734;32;32299;-88
2020/12/26 01:40:13;;;;;;;52.65;49.28;;;;;;;12.73;38.71;100205.88;4412639;32;32912;-88
2020/12/26 01:42:40;;;;;;;52.67;49.38;;;;;;;12.18;39.86;100205.84;4425463;32;33413;-88
2020/12/26 01:45:07;;;;;;;54.00;50.50;;;;;;;12.05;40.22;100212.34;4425700;32;34238;-89
2020/12/26 01:47:35;;;;;;;53.63;50.30;;;;;;;12.37;39.43;100213.97;4425453;32;33304;-88
2020/12/26 01:50:15;;;;;;;56.72;53.15;;;;;;;12.12;39.85;100216.47;4414597;32;32912;-88
2020/12/26 01:52:44;;;;;;;56.28;52.78;;;;;;;12.15;39.59;100217.25;4425104;32;33912;-88
2020/12/26 01:55:13;;;;;;;58.03;54.33;;;;;;;11.81;40.30;100226.00;4424735;32;32985;-88
2020/12/26 01:57:50;;;;;;;55.60;52.08;;;;;;;11.75;40.50;100234.00;4424832;32;33446;-88
2020/12/26 02:00:20;;;;;;;56.92;53.42;;;;;;;11.76;40.58;100237.50;4399325;32;33657;-87
2020/12/26 02:02:49;;;;;;;57.08;53.60;;;;;;;11.82;40.48;100238.19;4428020;32;34249;-88
2020/12/26 02:05:17;;;;;;;56.22;52.35;;;;;;;11.34;41.42;100243.81;4430458;32;32441;-88
2020/12/26 02:07:46;;;;;;;58.00;54.30;;;;;;;11.25;41.59;100231.88;4430259;32;32875;-87
2020/12/26 02:10:14;;;;;;;53.30;49.85;;;;;;;11.96;40.15;100227.34;4429341;32;34152;-89
2020/12/26 02:12:42;;;;;;;52.55;49.25;;;;;;;11.81;40.43;100223.41;4429553;32;33776;-89
2020/12/26 02:15:12;;;;;;;53.13;49.70;;;;;;;11.00;42.11;100235.09;4440273;32;34276;-87
2020/12/26 02:17:41;;;;;;;52.47;49.20;;;;;;;11.88;40.18;100225.84;4438022;32;33449;-88
2020/12/26 02:20:09;;;;;;;53.58;50.22;;;;;;;11.55;40.82;100231.94;4425329;32;33787;-88
2020/12/26 02:22:37;;;;;;;52.38;48.87;;;;;;;11.77;40.26;100224.41;4425553;32;33681;-88
2020/12/26 02:25:05;;;;;;;53.03;49.72;;;;;;;11.74;40.09;100221.00;4424582;32;33403;-88
2020/12/26 02:27:33;;;;;;;52.65;49.38;;;;;;;11.59;40.40;100214.47;4437759;32;33281;-88
2020/12/26 02:30:00;;;;;;;55.92;52.42;;;;;;;12.25;38.83;100214.34;4412035;32;32912;-87
2020/12/26 02:32:28;;;;;;;54.58;51.17;;;;;;;12.29;38.82;100215.97;4424367;32;32994;-88
2020/12/26 02:34:55;;;;;;;55.47;52.10;;;;;;;12.53;38.42;100216.97;4411529;32;33575;-89
2020/12/26 02:37:23;;;;;;;53.33;49.92;;;;;;;12.47;38.36;100223.25;4424525;32;32682;-88
2020/12/26 02:39:52;;;;;;;52.25;49.05;;;;;;;12.29;38.91;100229.03;4424911;32;33012;-87
2020/12/26 02:42:20;;;;;;;52.33;49.03;;;;;;;12.23;38.99;100227.47;4424904;32;33118;-88
2020/12/26 02:44:47;;;;;;;52.67;49.47;;;;;;;12.46;38.53;100225.91;4437777;32;33069;-87
2020/12/26 02:47:15;;;;;;;51.80;48.60;;;;;;;11.83;39.58;100232.06;4424875;32;32822;-88
2020/12/26 02:49:43;;;;;;;52.45;49.25;;;;;;;12.14;38.98;100214.69;4424854;32;34724;-89
2020/12/26 02:52:10;;;;;;;51.47;48.38;;;;;;;11.75;39.50;100215.72;4424842;32;32745;-87
2020/12/26 02:54:38;;;;;;;51.80;48.60;;;;;;;12.05;38.95;100202.75;4424848;32;32135;-88
2020/12/26 02:57:06;;;;;;;51.92;48.83;;;;;;;12.16;38.78;100211.09;4424650;32;32335;-87
2020/12/26 02:59:33;;;;;;;53.05;49.70;;;;;;;11.51;39.89;100212.94;4425245;32;33653;-87
2020/12/26 03:02:01;;;;;;;51.65;48.65;;;;;;;11.83;39.19;100220.75;4412028;32;33902;-89
2020/12/26 03:04:28;;;;;;;51.90;48.80;;;;;;;12.02;38.66;100214.13;4424808;32;33449;-88
2020/12/26 03:06:56;;;;;;;51.95;48.85;;;;;;;11.83;39.10;100210.31;4424444;32;32241;-88
2020/12/26 03:09:23;;;;;;;55.08;51.67;;;;;;;12.09;38.45;100216.56;4424681;32;33762;-88
2020/12/26 03:11:51;;;;;;;54.90;51.70;;;;;;;12.21;38.15;100218.81;4423631;32;33135;-88
2020/12/26 03:14:18;;;;;;;54.72;51.50;;;;;;;12.26;37.70;100208.22;4423685;32;32957;-88
2020/12/26 03:16:46;;;;;;;55.70;52.40;;;;;;;12.23;37.93;100206.56;4423406;32;33719;-88
2020/12/26 03:19:13;;;;;;;54.55;51.35;;;;;;;11.65;38.95;100204.72;4423491;32;33902;-88
2020/12/26 03:21:41;;;;;;;51.65;48.35;;;;;;;11.95;38.32;100199.56;4424049;32;34703;-88
2020/12/26 03:24:09;;;;;;;51.03;47.88;;;;;;;12.01;38.08;100220.25;4437287;32;34684;-88
2020/12/26 03:26:37;;;;;;;52.30;49.10;;;;;;;11.60;38.61;100226.63;4415642;32;33049;-88
2020/12/26 03:29:05;;;;;;;52.58;49.17;;;;;;;11.74;38.25;100226.22;4430137;32;33176;-88
2020/12/26 03:31:34;;;;;;;51.63;48.53;;;;;;;11.55;38.73;100237.16;4430462;32;32816;-88
2020/12/26 03:34:01;;;;;;;51.42;48.22;;;;;;;11.63;38.46;100231.75;4430274;32;32589;-88
2020/12/26 03:36:28;;;;;;;51.70;48.60;;;;;;;11.34;38.95;100246.41;4443746;32;33673;-87
2020/12/26 03:38:56;;;;;;;50.88;47.85;;;;;;;11.67;38.08;100243.81;4428788;32;33856;-87
2020/12/26 03:41:23;;;;;;;50.78;47.58;;;;;;;11.47;38.50;100253.06;4426707;32;33680;-88
2020/12/26 03:43:50;;;;;;;52.03;48.83;;;;;;;11.51;38.46;100259.91;4413761;32;33657;-88
2020/12/26 03:46:18;;;;;;;51.37;48.28;;;;;;;11.28;39.08;100257.03;4426694;32;32992;-87
2020/12/26 03:48:46;;;;;;;51.33;48.22;;;;;;;11.39;38.50;100255.00;4426138;32;33044;-88
2020/12/26 03:51:32;;;;;;;50.92;47.92;;;;;;;10.35;40.74;100254.84;4430716;32;33647;-88
2020/12/26 03:53:59;;;;;;;51.40;48.20;;;;;;;10.95;39.41;100257.81;4426216;32;32577;-88
2020/12/26 03:56:27;;;;;;;51.15;47.92;;;;;;;11.23;38.73;100259.75;4426152;32;32549;-87
2020/12/26 03:58:55;;;;;;;50.45;47.50;;;;;;;10.77;39.31;100260.84;4413273;32;35018;-87
2020/12/26 04:01:22;;;;;;;52.13;49.03;;;;;;;10.67;39.60;100271.50;4426038;32;32928;-88
2020/12/26 04:03:51;;;;;;;53.92;50.75;;;;;;;10.68;39.88;100270.63;4425679;32;33626;-88
2020/12/26 04:06:18;;;;;;;54.20;51.00;;;;;;;10.83;39.08;100269.38;4425581;32;34456;-88
2020/12/26 04:08:47;;;;;;;54.20;51.00;;;;;;;10.58;39.78;100263.03;4412813;32;33195;-88
2020/12/26 04:11:14;;;;;;;51.28;48.17;;;;;;;11.11;38.55;100260.91;4438194;32;32807;-89
2020/12/26 04:13:42;;;;;;;53.85;50.70;;;;;;;11.17;38.22;100265.13;4425731;32;33294;-88
2020/12/26 04:16:10;;;;;;;51.90;48.70;;;;;;;11.49;37.19;100259.06;4425931;32;32775;-88
2020/12/26 04:18:40;;;;;;;50.60;47.60;;;;;;;11.48;37.42;100251.28;4426160;32;34344;-88
2020/12/26 04:21:08;;;;;;;51.20;48.17;;;;;;;11.55;36.97;100242.38;4426010;32;32933;-88
2020/12/26 04:23:35;;;;;;;51.10;48.05;;;;;;;11.65;36.49;100238.62;4426215;32;34154;-88
2020/12/26 04:26:08;;;;;;;49.83;47.03;;;;;;;12.11;35.50;100227.81;4425696;32;32486;-88
2020/12/26 04:28:35;;;;;;;50.60;47.65;;;;;;;11.69;36.16;100232.44;4413081;32;32583;-88
2020/12/26 04:31:02;;;;;;;50.15;47.30;;;;;;;11.63;36.27;100235.22;4425634;32;32917;-88
2020/12/26 04:33:30;;;;;;;50.22;47.33;;;;;;;12.03;35.39;100241.09;4438834;32;34568;-88
2020/12/26 04:35:57;;;;;;;51.40;48.40;;;;;;;11.64;35.64;100234.31;4426071;32;33400;-88
2020/12/26 04:38:25;;;;;;;51.33;48.35;;;;;;;11.97;35.02;100231.69;4425879;32;32922;-88
2020/12/26 04:40:53;;;;;;;50.20;47.40;;;;;;;11.20;36.64;100238.97;4425777;32;34738;-88
2020/12/26 04:43:20;;;;;;;51.10;48.10;;;;;;;11.51;36.03;100248.59;4438875;32;33511;-87
2020/12/26 04:45:49;;;;;;;50.33;47.35;;;;;;;11.48;35.79;100251.28;4427064;32;33982;-88
2020/12/26 04:48:17;;;;;;;50.65;47.75;;;;;;;10.84;36.83;100255.47;4419359;32;32772;-88
2020/12/26 04:50:47;;;;;;;50.72;47.72;;;;;;;11.23;36.27;100257.13;4433897;32;34323;-88
2020/12/26 04:53:17;;;;;;;50.88;47.80;;;;;;;11.27;36.14;100261.37;4433366;32;33216;-88
2020/12/26 04:55:49;;;;;;;50.17;47.28;;;;;;;11.50;35.57;100259.91;4429037;32;33502;-88
2020/12/26 04:58:18;;;;;;;50.20;47.30;;;;;;;11.35;35.92;100262.06;4428200;32;33453;-88
2020/12/26 05:00:47;;;;;;;50.00;47.13;;;;;;;11.23;35.78;100264.13;4426034;32;33850;-87
2020/12/26 05:03:17;;;;;;;50.92;47.80;;;;;;;11.46;35.06;100272.22;4426334;32;32986;-88
2020/12/26 05:05:45;;;;;;;49.55;46.75;;;;;;;11.64;34.66;100283.06;4425953;32;33637;-88
2020/12/26 05:08:15;;;;;;;53.85;50.65;;;;;;;11.41;34.83;100288.84;4425310;32;34435;-88
2020/12/26 05:10:42;;;;;;;54.90;51.67;;;;;;;11.34;35.06;100286.44;4424695;32;34100;-88
2020/12/26 05:13:11;;;;;;;53.55;50.45;;;;;;;11.15;34.97;100301.66;4424919;32;32655;-89
2020/12/26 05:15:39;;;;;;;53.70;50.60;;;;;;;10.68;36.04;100301.87;4412225;32;32208;-88
2020/12/26 05:18:06;;;;;;;53.47;50.47;;;;;;;11.15;35.10;100306.88;4424857;32;34764;-88
2020/12/26 05:20:35;;;;;;;53.80;50.65;;;;;;;10.67;36.19;100313.19;4424537;32;33112;-88
2020/12/26 05:23:09;;;;;;;53.97;50.97;;;;;;;10.95;35.89;100314.34;4424991;32;33728;-87
2020/12/26 05:25:46;;;;;;;52.78;49.58;;;;;;;11.15;35.54;100322.53;4437740;32;33782;-88
2020/12/26 05:28:14;;;;;;;54.15;50.97;;;;;;;10.59;36.46;100322.09;4424886;32;32959;-88
2020/12/26 05:30:44;;;;;;;50.90;47.97;;;;;;;11.06;35.45;100332.31;4412493;32;33600;-87
2020/12/26 05:33:13;;;;;;;50.85;47.50;;;;;;;10.34;36.81;100335.59;4413121;32;32761;-88
2020/12/26 05:35:46;;;;;;;50.20;47.35;;;;;;;10.21;36.70;100345.41;4412868;32;32304;-88
2020/12/26 05:38:16;;;;;;;51.28;48.38;;;;;;;10.55;36.29;100349.09;4425375;32;32658;-88
2020/12/26 05:40:48;;;;;;;50.78;47.88;;;;;;;10.56;36.36;100353.44;4425447;32;34018;-88
2020/12/26 05:43:19;;;;;;;49.55;46.75;;;;;;;9.50;38.00;100352.72;4425125;32;34085;-87
2020/12/26 05:45:47;;;;;;;50.88;47.97;;;;;;;10.47;36.56;100368.34;4437929;32;32834;-88
2020/12/26 05:48:18;;;;;;;50.40;47.50;;;;;;;11.26;35.15;100371.84;4412952;32;33127;-87
2020/12/26 05:50:47;;;;;;;50.63;47.72;;;;;;;11.30;34.87;100375.22;4412894;32;32972;-88
2020/12/26 05:53:15;;;;;;;50.97;47.97;;;;;;;11.08;35.35;100380.94;4425899;32;33070;-88
2020/12/26 05:55:46;;;;;;;51.35;48.35;;;;;;;10.88;35.51;100385.75;4438156;32;34208;-88
2020/12/26 05:58:14;;;;;;;52.05;49.15;;;;;;;11.14;34.49;100388.63;4424862;32;34491;-88
2020/12/26 06:00:42;;;;;;;53.40;50.38;;;;;;;11.20;34.31;100398.91;4423643;32;33496;-87
2020/12/26 06:03:36;;;;;;;51.88;48.87;;;;;;;11.50;33.47;100398.22;4424909;32;33647;-87
2020/12/26 06:06:04;;;;;;;54.15;51.05;;;;;;;11.65;33.41;100403.06;4437967;32;33861;-88
2020/12/26 06:08:32;;;;;;;53.00;50.05;;;;;;;11.67;33.21;100423.91;4435251;32;33123;-87
2020/12/26 06:11:01;;;;;;;51.95;49.05;;;;;;;11.57;33.37;100418.06;4422454;32;32988;-88
2020/12/26 06:13:31;;;;;;;52.97;49.97;;;;;;;11.17;33.79;100417.25;4445206;32;34460;-87
2020/12/26 06:16:18;;;;;;;53.67;50.65;;;;;;;11.34;33.57;100414.25;4428521;32;33581;-87
2020/12/26 06:18:59;;;;;;;50.22;47.33;;;;;;;11.33;33.53;100420.37;4428086;32;33249;-88
2020/12/26 06:21:27;;;;;;;49.72;46.92;;;;;;;11.15;33.55;100424.25;4425338;32;33725;-88
2020/12/26 06:23:54;;;;;;;51.53;48.58;;;;;;;11.30;33.53;100432.63;4412336;32;32437;-88
2020/12/26 06:26:29;;;;;;;49.90;47.10;;;;;;;10.84;34.01;100440.56;4412325;32;33187;-88
2020/12/26 06:28:57;;;;;;;54.30;51.20;;;;;;;11.17;33.42;100447.69;4399259;32;34067;-88
2020/12/26 06:31:25;;;;;;;52.58;49.63;;;;;;;10.84;33.93;100450.97;4424752;32;34187;-88
2020/12/26 06:33:53;;;;;;;49.00;46.28;;;;;;;11.26;32.98;100462.28;4412448;32;32665;-88
2020/12/26 06:36:21;;;;;;;49.50;46.80;;;;;;;10.98;33.52;100474.19;4425064;32;33239;-88
2020/12/26 06:38:48;;;;;;;49.30;46.45;;;;;;;10.92;33.30;100476.91;4424409;32;33933;-89
2020/12/26 06:41:19;;;;;;;49.70;46.95;;;;;;;11.31;32.78;100481.28;4424852;32;32874;-88
2020/12/26 06:43:56;;;;;;;53.33;50.30;;;;;;;10.84;33.50;100489.25;4437172;32;33504;-88
2020/12/26 06:46:23;;;;;;;49.35;46.55;;;;;;;10.90;33.19;100502.13;4412188;32;32993;-88
2020/12/26 06:48:53;;;;;;;49.97;47.08;;;;;;;11.19;32.98;100503.28;4424619;32;33466;-87
2020/12/26 06:51:28;;;;;;;50.40;47.60;;;;;;;11.11;32.98;100505.19;4424694;32;32839;-88
2020/12/26 06:54:04;;;;;;;49.67;46.88;;;;;;;11.32;32.63;100504.72;4424668;32;32436;-88
2020/12/26 06:56:37;;;;;;;48.47;45.80;;;;;;;10.89;33.15;100509.97;4413426;32;33390;-88
2020/12/26 06:59:07;;;;;;;52.50;49.60;;;;;;;11.55;31.92;100508.56;4451070;32;33507;-88
2020/12/26 07:01:36;;;;;;;49.42;46.63;;;;;;;11.72;31.39;100512.56;4424409;32;33326;-88
2020/12/26 07:04:06;;;;;;;50.03;47.20;;;;;;;11.45;31.57;100531.44;4424550;32;32756;-87
2020/12/26 07:06:53;;;;;;;49.47;46.78;;;;;;;11.33;31.82;100534.31;4437282;32;33287;-88
2020/12/26 07:09:47;;;;;;;49.30;46.58;;;;;;;11.35;31.76;100532.50;4437109;32;34204;-88
2020/12/26 07:12:15;;;;;;;49.97;47.17;;;;;;;11.33;31.97;100529.94;4443303;32;33416;-89
2020/12/26 07:14:51;;;;;;;49.08;46.37;;;;;;;11.37;31.75;100530.75;4413801;32;32711;-87
2020/12/26 07:17:28;;;;;;;49.70;46.90;;;;;;;11.01;32.17;100526.25;4426594;32;33464;-88
2020/12/26 07:20:01;;;;;;;49.60;46.70;;;;;;;10.69;32.40;100525.13;4426419;32;33551;-87
2020/12/26 07:22:31;;;;;;;49.83;46.92;;;;;;;10.94;31.98;100529.88;4427606;32;32932;-87
2020/12/26 07:25:08;;;;;;;49.95;47.15;;;;;;;11.05;31.81;100534.00;4426596;32;32761;-88
2020/12/26 07:27:38;;;;;;;49.20;46.50;;;;;;;11.31;31.34;100531.72;4427064;32;33085;-88
2020/12/26 07:30:17;;;;;;;49.95;47.15;;;;;;;10.07;32.90;100532.28;4442594;32;33659;-88
2020/12/26 07:32:50;;;;;;;48.92;46.22;;;;;;;10.90;31.45;100532.56;4434606;32;32764;-88
2020/12/26 07:35:22;;;;;;;49.90;47.10;;;;;;;11.10;31.02;100534.78;4445443;32;33425;-88
2020/12/26 07:37:53;;;;;;;50.15;47.35;;;;;;;10.61;32.11;100537.47;4429588;32;33228;-87
2020/12/26 07:40:21;;;;;;;49.00;46.30;;;;;;;10.99;31.12;100533.22;4428273;32;32789;-88
2020/12/26 07:42:49;;;;;;;49.17;46.45;;;;;;;11.08;31.07;100529.59;4426127;32;34199;-88
2020/12/26 07:45:23;;;;;;;49.30;46.53;;;;;;;11.48;30.23;100527.88;4426951;32;34491;-88
2020/12/26 07:47:51;;;;;;;;;;;;;;;10.44;31.33;100542.13;4413893;32;33099;-89
2020/12/26 07:50:21;;;;;;;49.35;46.65;;;;;;;11.26;30.45;100536.19;4413783;32;32949;-88
2020/12/26 07:52:51;;;;;;;49.92;47.13;;;;;;;11.79;29.83;100541.13;4426013;32;33814;-88
2020/12/26 07:55:19;;;;;;;49.67;46.88;;;;;;;11.89;29.39;100533.91;4414365;32;33582;-88
2020/12/26 07:57:48;;;;;;;49.25;46.47;;;;;;;11.49;29.92;100545.28;4439042;32;34231;-87
2020/12/26 08:00:26;;;;;;;50.08;47.28;;;;;;;11.47;29.91;100557.47;4426177;32;32846;-88
2020/12/26 08:02:57;;;;;;;48.95;46.25;;;;;;;11.23;30.01;100551.88;4439192;32;33417;-88
2020/12/26 08:05:30;;;;;;;51.63;48.80;;;;;;;11.78;29.14;100549.84;4426087;32;33870;-88
2020/12/26 08:07:58;;;;;;;52.13;49.20;;;;;;;11.64;29.26;100563.19;4438041;32;32515;-88
2020/12/26 08:10:28;;;;;;;49.08;46.37;;;;;;;11.23;30.07;100554.50;4425584;32;34130;-88
2020/12/26 08:12:57;;;;;;;51.50;48.38;;;;;;;10.85;29.91;100556.13;4426000;32;32980;-88
2020/12/26 08:15:27;;;;;;;49.20;46.50;;;;;;;11.37;29.67;100551.63;4426186;32;33996;-88
2020/12/26 08:17:57;;;;;;;49.33;46.63;;;;;;;10.45;30.44;100546.41;4426475;32;34397;-88
2020/12/26 08:20:28;;;;;;;49.08;46.33;;;;;;;11.37;29.45;100549.00;4438615;32;33481;-88
2020/12/26 08:22:56;;;;;;;49.95;47.05;;;;;;;11.71;28.63;100545.63;4438253;32;33643;-88
2020/12/26 08:25:25;;;;;;;49.05;46.35;;;;;;;10.25;30.89;100552.81;4413270;32;32733;-88
2020/12/26 08:27:54;;;;;;;54.33;51.33;;;;;;;10.91;30.22;100563.81;4426036;32;33106;-88
2020/12/26 08:30:30;;;;;;;51.67;48.85;;;;;;;11.41;29.34;100578.47;4425120;32;32855;-88
2020/12/26 08:33:40;;;;;;;52.53;49.63;;;;;;;11.65;28.90;100587.56;4438070;32;33681;-89
2020/12/26 08:36:25;;;;;;;50.00;47.20;;;;;;;11.61;29.21;100606.78;4348869;32;32682;-88
2020/12/26 08:39:00;;;;;;;52.70;49.80;;;;;;;11.89;28.37;100619.25;4373359;32;33602;-88
2020/12/26 08:41:30;;;;;;;49.17;46.47;;;;;;;11.89;28.49;100619.25;4348333;32;33789;-88
2020/12/26 08:43:58;;;;;;;49.30;46.50;;;;;;;11.59;28.57;100632.03;4361405;32;32995;-88
2020/12/26 08:46:26;;;;;;;49.28;46.58;;;;;;;11.99;28.29;100637.31;4361897;32;32949;-88
2020/12/26 08:48:55;;;;;;;49.75;46.88;;;;;;;12.00;28.19;100641.63;4336792;32;33525;-88
2020/12/26 08:51:25;;;;;;;50.15;47.35;;;;;;;11.99;28.26;100639.91;4357506;32;34062;-89
2020/12/26 08:53:56;;;;;;;50.65;47.80;;;;;;;11.82;27.83;100644.59;4371307;32;33553;-88
2020/12/26 08:56:35;;;;;;;49.65;46.85;;;;;;;12.17;27.72;100640.37;4370474;32;34076;-89
2020/12/26 08:59:04;;;;;;;49.25;46.45;;;;;;;12.34;27.41;100651.31;4353057;32;32062;-89
2020/12/26 09:01:33;;;;;;;49.58;46.88;;;;;;;11.75;28.08;100654.31;4364965;32;33891;-88
2020/12/26 09:04:00;;;;;;;50.15;47.13;;;;;;;12.44;27.42;100662.38;4349586;32;33814;-87
2020/12/26 09:06:30;;;;;;;49.85;47.05;;;;;;;12.65;27.15;100662.78;4385337;32;34013;-88
2020/12/26 09:09:21;;;;;;;49.30;46.40;;;;;;;12.74;26.61;100661.66;4413648;32;32569;-89
2020/12/26 09:12:01;;;;;;;49.83;47.05;;;;;;;12.80;26.63;100661.50;4413126;32;33673;-89
2020/12/26 09:14:28;;;;;;;49.35;46.65;;;;;;;12.92;26.33;100649.88;4438495;32;33627;-88
2020/12/26 09:16:57;;;;;;;49.42;46.72;;;;;;;12.90;26.20;100646.47;4425587;32;32764;-89
2020/12/26 09:19:25;;;;;;;49.60;46.83;;;;;;;12.92;26.19;100640.28;4425723;32;34154;-88
2020/12/26 09:22:10;;;;;;;49.28;46.55;;;;;;;13.53;25.61;100627.31;4412835;32;32890;-89
2020/12/26 09:24:38;;;;;;;49.13;46.33;;;;;;;12.98;26.04;100626.19;4412855;32;34070;-88
2020/12/26 09:27:20;;;;;;;49.45;46.65;;;;;;;12.50;26.12;100627.41;4413251;32;33611;-88
2020/12/26 09:29:51;;;;;;;50.20;47.45;;;;;;;13.10;25.02;100631.09;4425182;32;32575;-88
2020/12/26 09:32:19;;;;;;;49.35;46.65;;;;;;;12.21;25.89;100631.59;4425363;32;34026;-89
2020/12/26 09:34:46;;;;;;;49.28;46.58;;;;;;;12.88;24.98;100643.87;4412887;32;33216;-88
2020/12/26 09:37:14;;;;;;;49.30;46.60;;;;;;;12.65;25.12;100628.78;4412787;32;33117;-89
2020/12/26 09:39:42;;;;;;;50.15;47.35;;;;;;;13.05;24.92;100613.81;4413002;32;32319;-89
2020/12/26 09:42:09;;;;;;;49.38;46.67;;;;;;;13.28;24.30;100610.53;4425892;32;34633;-88
2020/12/26 09:44:37;;;;;;;49.65;46.95;;;;;;;13.65;23.88;100594.66;4425377;32;32972;-88
2020/12/26 09:47:06;;;;;;;49.97;47.17;;;;;;;13.17;25.00;100597.75;4425590;32;33854;-89
2020/12/26 09:49:34;;;;;;;48.60;45.80;;;;;;;13.42;24.82;100604.97;4425809;32;34115;-89
2020/12/26 09:52:01;;;;;;;49.75;47.05;;;;;;;13.48;24.69;100608.25;4425324;32;33910;-88
2020/12/26 09:54:30;;;;;;;53.40;50.40;;;;;;;13.69;24.35;100619.84;4425124;32;33367;-88
2020/12/26 09:56:58;;;;;;;49.70;46.90;;;;;;;13.58;24.23;100635.00;4424848;32;32893;-88
2020/12/26 09:59:25;;;;;;;49.75;46.90;;;;;;;14.05;23.87;100633.63;4412876;32;32637;-88
2020/12/26 10:01:53;;;;;;;48.47;45.78;;;;;;;14.15;23.58;100635.06;4425327;32;33296;-89
2020/12/26 10:04:21;;;;;;;50.72;47.92;;;;;;;14.63;22.79;100633.50;4438088;32;33701;-88
2020/12/26 10:06:49;;;;;;;51.33;48.38;;;;;;;14.61;22.52;100638.81;4425373;32;33563;-89
2020/12/26 10:09:16;;;;;;;49.55;46.83;;;;;;;14.36;22.95;100629.12;4424687;32;32630;-88
2020/12/26 10:11:44;;;;;;;49.42;46.63;;;;;;;13.76;23.82;100635.38;4425780;32;33960;-89
2020/12/26 10:14:13;;;;;;;49.10;46.30;;;;;;;13.80;24.10;100648.34;4438314;32;34531;-88
2020/12/26 10:16:40;;;;;;;49.42;46.67;;;;;;;14.10;23.76;100663.16;4432491;32;34627;-88
2020/12/26 10:19:07;;;;;;;50.72;47.92;;;;;;;14.11;23.82;100673.59;4439278;32;34785;-88
2020/12/26 10:21:35;;;;;;;49.92;47.13;;;;;;;14.77;22.89;100669.78;4425983;32;32690;-88
2020/12/26 10:24:02;;;;;;;49.17;46.35;;;;;;;14.70;23.03;100682.25;4446094;32;35217;-88
2020/12/26 10:26:30;;;;;;;49.35;46.65;;;;;;;15.17;22.26;100689.41;4417176;32;33690;-88
2020/12/26 10:28:57;;;;;;;49.40;46.70;;;;;;;15.01;22.32;100687.34;4441722;32;34347;-88
2020/12/26 10:31:31;;;;;;;49.92;47.13;;;;;;;14.97;22.68;100671.72;4413095;32;32982;-89
2020/12/26 10:34:00;;;;;;;49.40;46.70;;;;;;;15.47;21.48;100670.87;4412843;32;32922;-89
2020/12/26 10:36:27;;;;;;;48.92;46.22;;;;;;;15.53;21.52;100674.13;4412380;32;32587;-88
2020/12/26 10:38:55;;;;;;;50.00;47.30;;;;;;;14.82;22.78;100663.50;4425352;32;33551;-89
2020/12/26 10:41:23;;;;;;;49.00;46.35;;;;;;;15.23;22.13;100673.47;4411965;32;34101;-88
2020/12/26 10:43:50;;;;;;;50.10;47.30;;;;;;;15.32;21.66;100670.50;4451729;32;34743;-89
2020/12/26 10:46:17;;;;;;;49.75;46.88;;;;;;;15.08;22.14;100668.78;4424098;32;32961;-89
2020/12/26 10:48:45;;;;;;;49.90;47.20;;;;;;;15.75;21.25;100668.06;4424763;32;32491;-88
2020/12/26 10:51:12;;;;;;;49.17;46.47;;;;;;;15.91;21.00;100655.22;4424866;32;33096;-88
2020/12/26 10:53:39;;;;;;;49.92;47.20;;;;;;;16.10;20.69;100660.66;4424698;32;32724;-88
2020/12/26 10:56:08;;;;;;;49.28;46.47;;;;;;;15.64;21.38;100655.34;4412238;32;33630;-88
2020/12/26 10:58:36;;;;;;;49.55;46.85;;;;;;;15.97;20.94;100644.50;4412174;32;32598;-88
2020/12/26 11:01:03;;;;;;;49.15;46.45;;;;;;;15.62;21.44;100646.69;4424879;32;34328;-89
2020/12/26 11:03:31;;;;;;;48.58;45.95;;;;;;;16.14;20.92;100642.94;4412071;32;35091;-88
2020/12/26 11:05:59;;;;;;;49.95;47.25;;;;;;;15.38;22.03;100648.41;4412084;32;32807;-89
2020/12/26 11:08:27;;;;;;;49.85;47.08;;;;;;;15.50;21.60;100650.59;4412170;32;33431;-88
2020/12/26 11:10:55;;;;;;;48.83;46.13;;;;;;;16.53;20.98;100661.53;4424920;32;34716;-89
2020/12/26 11:13:22;;;;;;;49.20;46.55;;;;;;;15.88;21.79;100663.25;4424620;32;33914;-88
2020/12/26 11:15:50;;;;;;;49.40;46.70;;;;;;;15.63;22.36;100669.38;4424710;32;32529;-88
2020/12/26 11:18:18;;;;;;;49.90;47.10;;;;;;;16.24;21.79;100667.97;4411830;32;32162;-89
2020/12/26 11:20:46;;;;;;;49.70;46.90;;;;;;;16.15;21.87;100671.84;4411725;32;32918;-88